sensor_id;sensor_type;location;lat;lon;timestamp;temperature;humidity
21734;DHT22;11029;47.820;10.534;2023-09-12T00:00:40;15.20;69.20
21734;DHT22;11029;47.820;10.534;2023-09-12T00:03:07;15.30;69.00
21734;DHT22;11029;47.820;10.534;2023-09-12T00:05:34;15.30;68.50
21734;DHT22;11029;47.820;10.534;2023-09-12T00:08:01;15.30;69.00
21734;DHT22;11029;47.820;10.534;2023-09-12T00:10:28;15.30;68.80
21734;DHT22;11029;47.820;10.534;2023-09-12T00:12:56;15.20;69.70
21734;DHT22;11029;47.820;10.534;2023-09-12T00:15:22;15.20;68.90
21734;DHT22;11029;47.820;10.534;2023-09-12T00:17:49;15.10;68.80
21734;DHT22;11029;47.820;10.534;2023-09-12T00:20:16;15.10;68.90
21734;DHT22;11029;47.820;10.534;2023-09-12T00:22:42;15.00;69.50
21734;DHT22;11029;47.820;10.534;2023-09-12T00:25:09;15.00;69.20
21734;DHT22;11029;47.820;10.534;2023-09-12T00:27:36;14.90;70.10
21734;DHT22;11029;47.820;10.534;2023-09-12T00:30:03;14.90;71.10
21734;DHT22;11029;47.820;10.534;2023-09-12T00:32:30;14.90;71.80
21734;DHT22;11029;47.820;10.534;2023-09-12T00:34:56;15.00;72.10
21734;DHT22;11029;47.820;10.534;2023-09-12T00:37:23;15.00;72.40
21734;DHT22;11029;47.820;10.534;2023-09-12T00:39:51;14.90;72.80
21734;DHT22;11029;47.820;10.534;2023-09-12T00:42:18;15.00;70.80
21734;DHT22;11029;47.820;10.534;2023-09-12T00:44:45;15.00;70.80
21734;DHT22;11029;47.820;10.534;2023-09-12T00:47:12;14.80;71.80
21734;DHT22;11029;47.820;10.534;2023-09-12T00:49:39;14.70;72.30
21734;DHT22;11029;47.820;10.534;2023-09-12T00:52:06;14.70;72.80
21734;DHT22;11029;47.820;10.534;2023-09-12T00:54:34;14.70;73.60
21734;DHT22;11029;47.820;10.534;2023-09-12T00:57:01;14.60;72.30
21734;DHT22;11029;47.820;10.534;2023-09-12T00:59:28;14.60;72.20
21734;DHT22;11029;47.820;10.534;2023-09-12T01:01:55;14.60;73.00
21734;DHT22;11029;47.820;10.534;2023-09-12T01:04:21;14.70;73.40
21734;DHT22;11029;47.820;10.534;2023-09-12T01:07:02;14.60;74.10
21734;DHT22;11029;47.820;10.534;2023-09-12T01:09:28;14.70;72.50
21734;DHT22;11029;47.820;10.534;2023-09-12T01:11:55;14.60;71.30
21734;DHT22;11029;47.820;10.534;2023-09-12T01:14:22;14.50;70.50
21734;DHT22;11029;47.820;10.534;2023-09-12T01:16:49;14.50;70.70
21734;DHT22;11029;47.820;10.534;2023-09-12T01:19:16;14.50;70.10
21734;DHT22;11029;47.820;10.534;2023-09-12T01:24:38;14.50;72.00
21734;DHT22;11029;47.820;10.534;2023-09-12T01:27:19;14.50;70.50
21734;DHT22;11029;47.820;10.534;2023-09-12T01:29:49;14.50;69.60
21734;DHT22;11029;47.820;10.534;2023-09-12T01:32:17;14.40;70.40
21734;DHT22;11029;47.820;10.534;2023-09-12T01:34:45;14.50;69.90
21734;DHT22;11029;47.820;10.534;2023-09-12T01:37:12;14.50;69.90
21734;DHT22;11029;47.820;10.534;2023-09-12T01:39:39;14.50;69.30
21734;DHT22;11029;47.820;10.534;2023-09-12T01:42:05;14.40;69.70
21734;DHT22;11029;47.820;10.534;2023-09-12T01:44:32;14.30;70.50
21734;DHT22;11029;47.820;10.534;2023-09-12T01:47:02;14.30;70.50
21734;DHT22;11029;47.820;10.534;2023-09-12T01:49:29;14.30;70.10
21734;DHT22;11029;47.820;10.534;2023-09-12T01:51:58;14.30;70.30
21734;DHT22;11029;47.820;10.534;2023-09-12T01:54:26;14.40;69.90
21734;DHT22;11029;47.820;10.534;2023-09-12T01:56:53;14.20;70.30
21734;DHT22;11029;47.820;10.534;2023-09-12T01:59:22;14.20;71.30
21734;DHT22;11029;47.820;10.534;2023-09-12T02:01:49;14.20;71.10
21734;DHT22;11029;47.820;10.534;2023-09-12T02:04:15;14.10;71.20
21734;DHT22;11029;47.820;10.534;2023-09-12T02:06:42;14.10;70.50
21734;DHT22;11029;47.820;10.534;2023-09-12T02:09:08;14.10;70.70
21734;DHT22;11029;47.820;10.534;2023-09-12T02:11:35;14.10;70.50
21734;DHT22;11029;47.820;10.534;2023-09-12T02:14:02;14.00;70.90
21734;DHT22;11029;47.820;10.534;2023-09-12T02:16:30;14.00;70.80
21734;DHT22;11029;47.820;10.534;2023-09-12T02:18:57;14.00;71.10
21734;DHT22;11029;47.820;10.534;2023-09-12T02:21:24;13.80;72.20
21734;DHT22;11029;47.820;10.534;2023-09-12T02:23:51;13.80;72.30
21734;DHT22;11029;47.820;10.534;2023-09-12T02:26:18;13.70;72.30
21734;DHT22;11029;47.820;10.534;2023-09-12T02:28:45;13.70;72.00
21734;DHT22;11029;47.820;10.534;2023-09-12T02:31:12;13.70;72.30
21734;DHT22;11029;47.820;10.534;2023-09-12T02:33:39;13.70;72.60
21734;DHT22;11029;47.820;10.534;2023-09-12T02:36:06;13.80;71.90
21734;DHT22;11029;47.820;10.534;2023-09-12T02:38:33;13.80;71.30
21734;DHT22;11029;47.820;10.534;2023-09-12T02:40:59;13.70;71.60
21734;DHT22;11029;47.820;10.534;2023-09-12T02:43:26;13.70;72.00
21734;DHT22;11029;47.820;10.534;2023-09-12T02:45:53;13.60;72.80
21734;DHT22;11029;47.820;10.534;2023-09-12T02:48:19;13.50;73.80
21734;DHT22;11029;47.820;10.534;2023-09-12T02:50:46;13.50;73.30
21734;DHT22;11029;47.820;10.534;2023-09-12T02:53:13;13.50;73.10
21734;DHT22;11029;47.820;10.534;2023-09-12T02:55:40;13.50;72.90
21734;DHT22;11029;47.820;10.534;2023-09-12T02:58:07;13.50;73.20
21734;DHT22;11029;47.820;10.534;2023-09-12T03:00:37;13.60;72.70
21734;DHT22;11029;47.820;10.534;2023-09-12T03:03:04;13.60;71.60
21734;DHT22;11029;47.820;10.534;2023-09-12T03:05:31;13.60;72.40
21734;DHT22;11029;47.820;10.534;2023-09-12T03:07:58;13.60;71.50
21734;DHT22;11029;47.820;10.534;2023-09-12T03:10:25;13.60;72.00
21734;DHT22;11029;47.820;10.534;2023-09-12T03:12:52;13.60;72.30
21734;DHT22;11029;47.820;10.534;2023-09-12T03:15:19;13.70;71.70
21734;DHT22;11029;47.820;10.534;2023-09-12T03:17:45;13.70;70.60
21734;DHT22;11029;47.820;10.534;2023-09-12T03:20:12;13.70;70.90
21734;DHT22;11029;47.820;10.534;2023-09-12T03:22:39;13.60;70.80
21734;DHT22;11029;47.820;10.534;2023-09-12T03:25:06;13.60;70.60
21734;DHT22;11029;47.820;10.534;2023-09-12T03:27:33;13.60;70.60
21734;DHT22;11029;47.820;10.534;2023-09-12T03:30:00;13.70;70.80
21734;DHT22;11029;47.820;10.534;2023-09-12T03:32:27;13.70;71.00
21734;DHT22;11029;47.820;10.534;2023-09-12T03:34:54;13.70;71.20
21734;DHT22;11029;47.820;10.534;2023-09-12T03:37:20;13.70;72.30
21734;DHT22;11029;47.820;10.534;2023-09-12T03:39:48;13.60;72.70
21734;DHT22;11029;47.820;10.534;2023-09-12T03:42:15;13.60;72.80
21734;DHT22;11029;47.820;10.534;2023-09-12T03:44:42;13.70;72.10
21734;DHT22;11029;47.820;10.534;2023-09-12T03:47:08;13.70;71.60
21734;DHT22;11029;47.820;10.534;2023-09-12T03:49:36;13.70;72.60
21734;DHT22;11029;47.820;10.534;2023-09-12T03:52:02;13.60;72.40
21734;DHT22;11029;47.820;10.534;2023-09-12T03:54:31;13.60;70.70
21734;DHT22;11029;47.820;10.534;2023-09-12T03:56:58;13.60;70.40
21734;DHT22;11029;47.820;10.534;2023-09-12T03:59:24;13.50;70.00
21734;DHT22;11029;47.820;10.534;2023-09-12T04:01:51;13.40;70.70
21734;DHT22;11029;47.820;10.534;2023-09-12T04:04:18;13.30;70.60
21734;DHT22;11029;47.820;10.534;2023-09-12T04:06:45;13.20;71.50
21734;DHT22;11029;47.820;10.534;2023-09-12T04:09:13;13.20;71.80
21734;DHT22;11029;47.820;10.534;2023-09-12T04:11:40;13.20;72.30
21734;DHT22;11029;47.820;10.534;2023-09-12T04:14:16;13.20;72.40
21734;DHT22;11029;47.820;10.534;2023-09-12T04:16:43;13.20;71.80
21734;DHT22;11029;47.820;10.534;2023-09-12T04:19:10;13.20;71.70
21734;DHT22;11029;47.820;10.534;2023-09-12T04:21:37;13.20;71.20
21734;DHT22;11029;47.820;10.534;2023-09-12T04:24:04;13.20;71.50
21734;DHT22;11029;47.820;10.534;2023-09-12T04:26:31;13.20;71.40
21734;DHT22;11029;47.820;10.534;2023-09-12T04:28:57;13.20;71.00
21734;DHT22;11029;47.820;10.534;2023-09-12T04:31:24;13.30;70.90
21734;DHT22;11029;47.820;10.534;2023-09-12T04:33:51;13.30;70.50
21734;DHT22;11029;47.820;10.534;2023-09-12T04:36:19;13.20;71.40
21734;DHT22;11029;47.820;10.534;2023-09-12T04:38:46;13.20;71.30
21734;DHT22;11029;47.820;10.534;2023-09-12T04:41:13;13.20;70.60
21734;DHT22;11029;47.820;10.534;2023-09-12T04:43:43;13.20;70.70
21734;DHT22;11029;47.820;10.534;2023-09-12T04:46:13;13.20;70.30
21734;DHT22;11029;47.820;10.534;2023-09-12T04:48:40;13.10;70.50
21734;DHT22;11029;47.820;10.534;2023-09-12T04:51:08;13.10;70.40
21734;DHT22;11029;47.820;10.534;2023-09-12T04:53:34;13.00;71.20
21734;DHT22;11029;47.820;10.534;2023-09-12T04:56:03;13.10;70.60
21734;DHT22;11029;47.820;10.534;2023-09-12T04:58:30;13.00;71.00
21734;DHT22;11029;47.820;10.534;2023-09-12T05:00:57;13.00;71.20
21734;DHT22;11029;47.820;10.534;2023-09-12T05:03:23;12.90;71.50
21734;DHT22;11029;47.820;10.534;2023-09-12T05:05:53;12.90;71.60
21734;DHT22;11029;47.820;10.534;2023-09-12T05:08:20;12.90;71.70
21734;DHT22;11029;47.820;10.534;2023-09-12T05:10:47;13.00;71.50
21734;DHT22;11029;47.820;10.534;2023-09-12T05:13:14;13.00;71.20
21734;DHT22;11029;47.820;10.534;2023-09-12T05:15:42;13.00;70.70
21734;DHT22;11029;47.820;10.534;2023-09-12T05:18:09;13.10;70.40
21734;DHT22;11029;47.820;10.534;2023-09-12T05:20:36;13.10;70.50
21734;DHT22;11029;47.820;10.534;2023-09-12T05:23:03;13.10;70.20
21734;DHT22;11029;47.820;10.534;2023-09-12T05:25:30;13.10;70.30
21734;DHT22;11029;47.820;10.534;2023-09-12T05:27:57;13.00;70.70
21734;DHT22;11029;47.820;10.534;2023-09-12T05:30:24;13.10;70.80
21734;DHT22;11029;47.820;10.534;2023-09-12T05:32:51;13.10;70.70
21734;DHT22;11029;47.820;10.534;2023-09-12T05:35:18;13.20;70.60
21734;DHT22;11029;47.820;10.534;2023-09-12T05:37:50;13.10;71.50
21734;DHT22;11029;47.820;10.534;2023-09-12T05:40:18;13.10;71.40
21734;DHT22;11029;47.820;10.534;2023-09-12T05:42:45;13.20;71.70
21734;DHT22;11029;47.820;10.534;2023-09-12T05:45:12;13.30;71.80
21734;DHT22;11029;47.820;10.534;2023-09-12T05:47:39;13.20;72.00
21734;DHT22;11029;47.820;10.534;2023-09-12T05:50:06;13.10;73.10
21734;DHT22;11029;47.820;10.534;2023-09-12T05:52:34;13.20;73.30
21734;DHT22;11029;47.820;10.534;2023-09-12T05:55:01;13.30;72.90
21734;DHT22;11029;47.820;10.534;2023-09-12T05:57:28;13.60;72.10
21734;DHT22;11029;47.820;10.534;2023-09-12T05:59:56;13.70;71.90
21734;DHT22;11029;47.820;10.534;2023-09-12T06:02:22;13.90;71.90
21734;DHT22;11029;47.820;10.534;2023-09-12T06:04:49;14.00;71.20
21734;DHT22;11029;47.820;10.534;2023-09-12T06:07:17;14.10;71.20
21734;DHT22;11029;47.820;10.534;2023-09-12T06:09:43;14.20;71.10
21734;DHT22;11029;47.820;10.534;2023-09-12T06:12:10;14.30;71.40
21734;DHT22;11029;47.820;10.534;2023-09-12T06:14:37;14.50;71.30
21734;DHT22;11029;47.820;10.534;2023-09-12T06:17:04;14.60;71.10
21734;DHT22;11029;47.820;10.534;2023-09-12T06:19:30;14.90;71.00
21734;DHT22;11029;47.820;10.534;2023-09-12T06:21:57;15.00;70.60
21734;DHT22;11029;47.820;10.534;2023-09-12T06:24:26;15.20;70.40
21734;DHT22;11029;47.820;10.534;2023-09-12T06:26:52;15.50;70.30
21734;DHT22;11029;47.820;10.534;2023-09-12T06:29:19;15.60;70.30
21734;DHT22;11029;47.820;10.534;2023-09-12T06:31:46;15.90;70.20
21734;DHT22;11029;47.820;10.534;2023-09-12T06:34:13;16.10;69.70
21734;DHT22;11029;47.820;10.534;2023-09-12T06:36:40;16.30;69.10
21734;DHT22;11029;47.820;10.534;2023-09-12T06:39:11;16.40;69.30
21734;DHT22;11029;47.820;10.534;2023-09-12T06:41:38;16.60;69.80
21734;DHT22;11029;47.820;10.534;2023-09-12T06:44:05;16.80;69.60
21734;DHT22;11029;47.820;10.534;2023-09-12T06:46:32;16.90;69.00
21734;DHT22;11029;47.820;10.534;2023-09-12T06:49:02;17.10;68.80
21734;DHT22;11029;47.820;10.534;2023-09-12T06:51:30;17.30;68.70
21734;DHT22;11029;47.820;10.534;2023-09-12T06:54:01;17.40;68.80
21734;DHT22;11029;47.820;10.534;2023-09-12T06:56:28;17.60;68.60
21734;DHT22;11029;47.820;10.534;2023-09-12T06:58:55;17.80;69.00
21734;DHT22;11029;47.820;10.534;2023-09-12T07:01:22;17.90;68.90
21734;DHT22;11029;47.820;10.534;2023-09-12T07:03:49;18.10;67.40
21734;DHT22;11029;47.820;10.534;2023-09-12T07:06:20;18.20;67.20
21734;DHT22;11029;47.820;10.534;2023-09-12T07:08:47;18.30;68.30
21734;DHT22;11029;47.820;10.534;2023-09-12T07:11:14;18.40;68.80
21734;DHT22;11029;47.820;10.534;2023-09-12T07:13:41;18.50;68.50
21734;DHT22;11029;47.820;10.534;2023-09-12T07:16:10;18.60;68.60
21734;DHT22;11029;47.820;10.534;2023-09-12T07:18:37;18.90;67.80
21734;DHT22;11029;47.820;10.534;2023-09-12T07:21:05;19.10;67.00
21734;DHT22;11029;47.820;10.534;2023-09-12T07:23:33;19.20;67.50
21734;DHT22;11029;47.820;10.534;2023-09-12T07:26:00;19.40;67.70
21734;DHT22;11029;47.820;10.534;2023-09-12T07:28:27;19.50;66.80
21734;DHT22;11029;47.820;10.534;2023-09-12T07:30:54;19.70;66.80
21734;DHT22;11029;47.820;10.534;2023-09-12T07:33:21;19.80;67.00
21734;DHT22;11029;47.820;10.534;2023-09-12T07:35:51;20.00;66.70
21734;DHT22;11029;47.820;10.534;2023-09-12T07:38:21;20.10;66.80
21734;DHT22;11029;47.820;10.534;2023-09-12T07:40:48;20.30;65.80
21734;DHT22;11029;47.820;10.534;2023-09-12T07:43:15;20.50;66.20
21734;DHT22;11029;47.820;10.534;2023-09-12T07:45:42;20.60;66.80
21734;DHT22;11029;47.820;10.534;2023-09-12T07:48:10;20.80;65.10
21734;DHT22;11029;47.820;10.534;2023-09-12T07:50:38;20.90;64.30
21734;DHT22;11029;47.820;10.534;2023-09-12T07:53:05;21.00;65.60
21734;DHT22;11029;47.820;10.534;2023-09-12T07:55:36;21.00;63.40
21734;DHT22;11029;47.820;10.534;2023-09-12T07:58:15;21.00;62.40
21734;DHT22;11029;47.820;10.534;2023-09-12T08:00:42;21.10;63.60
21734;DHT22;11029;47.820;10.534;2023-09-12T08:03:09;21.20;63.50
21734;DHT22;11029;47.820;10.534;2023-09-12T08:05:36;21.30;63.60
21734;DHT22;11029;47.820;10.534;2023-09-12T08:08:03;21.40;64.40
21734;DHT22;11029;47.820;10.534;2023-09-12T08:10:30;21.40;64.40
21734;DHT22;11029;47.820;10.534;2023-09-12T08:12:57;21.40;63.60
21734;DHT22;11029;47.820;10.534;2023-09-12T08:15:23;21.40;63.50
21734;DHT22;11029;47.820;10.534;2023-09-12T08:17:51;21.40;64.30
21734;DHT22;11029;47.820;10.534;2023-09-12T08:20:19;21.50;64.30
21734;DHT22;11029;47.820;10.534;2023-09-12T08:22:47;21.70;65.30
21734;DHT22;11029;47.820;10.534;2023-09-12T08:25:13;21.80;65.70
21734;DHT22;11029;47.820;10.534;2023-09-12T08:27:41;21.90;65.60
21734;DHT22;11029;47.820;10.534;2023-09-12T08:30:10;22.00;64.60
21734;DHT22;11029;47.820;10.534;2023-09-12T08:32:37;22.10;64.60
21734;DHT22;11029;47.820;10.534;2023-09-12T08:35:06;22.20;64.10
21734;DHT22;11029;47.820;10.534;2023-09-12T08:37:33;22.30;63.90
21734;DHT22;11029;47.820;10.534;2023-09-12T08:40:00;22.40;63.20
21734;DHT22;11029;47.820;10.534;2023-09-12T08:42:27;22.40;63.30
21734;DHT22;11029;47.820;10.534;2023-09-12T08:44:55;22.50;63.30
21734;DHT22;11029;47.820;10.534;2023-09-12T08:47:22;22.60;63.80
21734;DHT22;11029;47.820;10.534;2023-09-12T08:49:50;22.60;63.00
21734;DHT22;11029;47.820;10.534;2023-09-12T08:52:17;22.60;62.40
21734;DHT22;11029;47.820;10.534;2023-09-12T08:54:44;22.60;62.10
21734;DHT22;11029;47.820;10.534;2023-09-12T08:57:10;22.60;62.30
21734;DHT22;11029;47.820;10.534;2023-09-12T08:59:38;22.60;62.50
21734;DHT22;11029;47.820;10.534;2023-09-12T09:02:05;22.70;62.70
21734;DHT22;11029;47.820;10.534;2023-09-12T09:04:33;22.80;62.40
21734;DHT22;11029;47.820;10.534;2023-09-12T09:07:01;22.90;61.90
21734;DHT22;11029;47.820;10.534;2023-09-12T09:09:30;23.00;63.60
21734;DHT22;11029;47.820;10.534;2023-09-12T09:11:57;23.20;62.10
21734;DHT22;11029;47.820;10.534;2023-09-12T09:14:24;23.30;62.30
21734;DHT22;11029;47.820;10.534;2023-09-12T09:16:51;23.50;61.70
21734;DHT22;11029;47.820;10.534;2023-09-12T09:19:18;23.70;61.10
21734;DHT22;11029;47.820;10.534;2023-09-12T09:21:46;23.60;58.60
21734;DHT22;11029;47.820;10.534;2023-09-12T09:24:14;23.70;60.20
21734;DHT22;11029;47.820;10.534;2023-09-12T09:26:45;23.80;58.90
21734;DHT22;11029;47.820;10.534;2023-09-12T09:29:13;24.00;59.80
21734;DHT22;11029;47.820;10.534;2023-09-12T09:31:41;24.10;58.40
21734;DHT22;11029;47.820;10.534;2023-09-12T09:34:12;24.10;57.10
21734;DHT22;11029;47.820;10.534;2023-09-12T09:36:43;24.10;58.20
21734;DHT22;11029;47.820;10.534;2023-09-12T09:39:10;24.20;58.20
21734;DHT22;11029;47.820;10.534;2023-09-12T09:41:37;24.30;58.50
21734;DHT22;11029;47.820;10.534;2023-09-12T09:44:05;24.30;56.50
21734;DHT22;11029;47.820;10.534;2023-09-12T09:46:32;24.40;58.10
21734;DHT22;11029;47.820;10.534;2023-09-12T09:48:59;24.40;56.90
21734;DHT22;11029;47.820;10.534;2023-09-12T09:51:26;24.40;54.90
21734;DHT22;11029;47.820;10.534;2023-09-12T09:53:53;24.30;55.40
21734;DHT22;11029;47.820;10.534;2023-09-12T09:56:24;24.40;55.50
21734;DHT22;11029;47.820;10.534;2023-09-12T09:58:54;24.50;55.50
21734;DHT22;11029;47.820;10.534;2023-09-12T10:01:30;24.60;55.50
21734;DHT22;11029;47.820;10.534;2023-09-12T10:03:58;24.60;54.40
21734;DHT22;11029;47.820;10.534;2023-09-12T10:06:25;24.60;54.30
21734;DHT22;11029;47.820;10.534;2023-09-12T10:08:53;24.70;57.50
21734;DHT22;11029;47.820;10.534;2023-09-12T10:11:23;24.90;54.60
21734;DHT22;11029;47.820;10.534;2023-09-12T10:13:54;25.10;57.40
21734;DHT22;11029;47.820;10.534;2023-09-12T10:16:25;25.20;55.80
21734;DHT22;11029;47.820;10.534;2023-09-12T10:21:29;25.00;52.40
21734;DHT22;11029;47.820;10.534;2023-09-12T10:23:59;24.90;52.70
21734;DHT22;11029;47.820;10.534;2023-09-12T10:26:27;24.90;51.90
21734;DHT22;11029;47.820;10.534;2023-09-12T10:28:54;25.00;51.30
21734;DHT22;11029;47.820;10.534;2023-09-12T10:31:21;25.00;50.10
21734;DHT22;11029;47.820;10.534;2023-09-12T10:33:50;25.10;48.50
21734;DHT22;11029;47.820;10.534;2023-09-12T10:36:17;25.20;47.90
21734;DHT22;11029;47.820;10.534;2023-09-12T10:38:45;25.30;48.70
21734;DHT22;11029;47.820;10.534;2023-09-12T10:41:13;25.30;47.90
21734;DHT22;11029;47.820;10.534;2023-09-12T10:43:41;25.40;47.40
21734;DHT22;11029;47.820;10.534;2023-09-12T10:46:09;25.40;48.50
21734;DHT22;11029;47.820;10.534;2023-09-12T10:48:36;25.50;48.40
21734;DHT22;11029;47.820;10.534;2023-09-12T10:51:03;25.40;47.30
21734;DHT22;11029;47.820;10.534;2023-09-12T10:53:32;25.50;50.80
21734;DHT22;11029;47.820;10.534;2023-09-12T10:56:18;25.70;48.00
21734;DHT22;11029;47.820;10.534;2023-09-12T10:59:32;25.80;46.40
21734;DHT22;11029;47.820;10.534;2023-09-12T11:01:33;25.70;45.90
21734;DHT22;11029;47.820;10.534;2023-09-12T11:04:29;25.60;46.00
21734;DHT22;11029;47.820;10.534;2023-09-12T11:06:47;25.70;48.50
21734;DHT22;11029;47.820;10.534;2023-09-12T11:12:04;25.70;47.10
21734;DHT22;11029;47.820;10.534;2023-09-12T11:14:31;25.80;43.10
21734;DHT22;11029;47.820;10.534;2023-09-12T11:19:44;25.90;43.90
21734;DHT22;11029;47.820;10.534;2023-09-12T11:22:24;25.90;43.50
21734;DHT22;11029;47.820;10.534;2023-09-12T11:24:51;26.00;43.00
21734;DHT22;11029;47.820;10.534;2023-09-12T11:27:18;26.30;45.10
21734;DHT22;11029;47.820;10.534;2023-09-12T11:29:45;26.50;42.60
21734;DHT22;11029;47.820;10.534;2023-09-12T11:32:24;26.50;44.40
21734;DHT22;11029;47.820;10.534;2023-09-12T11:34:51;26.60;42.40
21734;DHT22;11029;47.820;10.534;2023-09-12T11:37:27;26.60;44.00
21734;DHT22;11029;47.820;10.534;2023-09-12T11:39:55;26.60;43.90
21734;DHT22;11029;47.820;10.534;2023-09-12T11:42:24;26.60;42.80
21734;DHT22;11029;47.820;10.534;2023-09-12T11:44:52;26.70;42.30
21734;DHT22;11029;47.820;10.534;2023-09-12T11:47:19;26.70;41.80
21734;DHT22;11029;47.820;10.534;2023-09-12T11:49:46;26.70;42.00
21734;DHT22;11029;47.820;10.534;2023-09-12T11:52:14;26.90;43.10
21734;DHT22;11029;47.820;10.534;2023-09-12T11:54:44;27.00;42.20
21734;DHT22;11029;47.820;10.534;2023-09-12T11:57:13;27.10;42.50
21734;DHT22;11029;47.820;10.534;2023-09-12T11:59:43;27.10;43.60
21734;DHT22;11029;47.820;10.534;2023-09-12T12:02:13;27.00;40.60
21734;DHT22;11029;47.820;10.534;2023-09-12T12:04:41;27.10;42.00
21734;DHT22;11029;47.820;10.534;2023-09-12T12:07:09;27.20;42.90
21734;DHT22;11029;47.820;10.534;2023-09-12T12:09:37;27.20;40.70
21734;DHT22;11029;47.820;10.534;2023-09-12T12:12:12;27.10;41.70
21734;DHT22;11029;47.820;10.534;2023-09-12T12:14:40;27.00;41.70
21734;DHT22;11029;47.820;10.534;2023-09-12T12:17:08;27.00;40.40
21734;DHT22;11029;47.820;10.534;2023-09-12T12:19:37;27.10;40.60
21734;DHT22;11029;47.820;10.534;2023-09-12T12:22:04;27.10;41.20
21734;DHT22;11029;47.820;10.534;2023-09-12T12:24:55;27.20;41.20
21734;DHT22;11029;47.820;10.534;2023-09-12T12:27:22;27.30;40.80
21734;DHT22;11029;47.820;10.534;2023-09-12T12:29:50;27.20;39.70
21734;DHT22;11029;47.820;10.534;2023-09-12T12:32:16;27.40;39.70
21734;DHT22;11029;47.820;10.534;2023-09-12T12:34:48;27.70;39.60
21734;DHT22;11029;47.820;10.534;2023-09-12T12:37:36;27.90;39.00
21734;DHT22;11029;47.820;10.534;2023-09-12T12:40:04;28.00;38.80
21734;DHT22;11029;47.820;10.534;2023-09-12T12:42:32;28.30;38.70
21734;DHT22;11029;47.820;10.534;2023-09-12T12:45:18;28.60;37.70
21734;DHT22;11029;47.820;10.534;2023-09-12T12:47:45;28.90;38.40
21734;DHT22;11029;47.820;10.534;2023-09-12T12:50:16;29.20;37.80
21734;DHT22;11029;47.820;10.534;2023-09-12T12:52:47;29.30;36.70
21734;DHT22;11029;47.820;10.534;2023-09-12T12:55:15;29.20;36.40
21734;DHT22;11029;47.820;10.534;2023-09-12T12:57:43;29.30;36.40
21734;DHT22;11029;47.820;10.534;2023-09-12T13:00:16;29.40;36.20
21734;DHT22;11029;47.820;10.534;2023-09-12T13:02:45;29.30;38.60
21734;DHT22;11029;47.820;10.534;2023-09-12T13:05:25;29.10;36.70
21734;DHT22;11029;47.820;10.534;2023-09-12T13:07:52;29.00;37.40
21734;DHT22;11029;47.820;10.534;2023-09-12T13:10:19;29.00;38.10
21734;DHT22;11029;47.820;10.534;2023-09-12T13:12:46;29.00;37.80
21734;DHT22;11029;47.820;10.534;2023-09-12T13:15:13;29.00;38.00
21734;DHT22;11029;47.820;10.534;2023-09-12T13:17:40;29.10;38.30
21734;DHT22;11029;47.820;10.534;2023-09-12T13:22:48;29.30;37.20
21734;DHT22;11029;47.820;10.534;2023-09-12T13:25:15;29.10;36.50
21734;DHT22;11029;47.820;10.534;2023-09-12T13:27:41;29.40;36.80
21734;DHT22;11029;47.820;10.534;2023-09-12T13:30:08;29.80;38.10
21734;DHT22;11029;47.820;10.534;2023-09-12T13:32:35;30.10;36.50
21734;DHT22;11029;47.820;10.534;2023-09-12T13:35:02;30.30;36.30
21734;DHT22;11029;47.820;10.534;2023-09-12T13:37:29;30.50;36.20
21734;DHT22;11029;47.820;10.534;2023-09-12T13:39:57;30.60;36.30
21734;DHT22;11029;47.820;10.534;2023-09-12T13:42:25;30.70;35.80
21734;DHT22;11029;47.820;10.534;2023-09-12T13:44:57;30.60;36.70
21734;DHT22;11029;47.820;10.534;2023-09-12T13:47:24;30.70;37.10
21734;DHT22;11029;47.820;10.534;2023-09-12T13:49:52;30.90;36.70
21734;DHT22;11029;47.820;10.534;2023-09-12T13:52:26;31.00;36.60
21734;DHT22;11029;47.820;10.534;2023-09-12T13:54:52;31.20;35.40
21734;DHT22;11029;47.820;10.534;2023-09-12T13:57:22;31.30;34.70
21734;DHT22;11029;47.820;10.534;2023-09-12T13:59:48;31.40;34.30
21734;DHT22;11029;47.820;10.534;2023-09-12T14:02:15;31.40;34.10
21734;DHT22;11029;47.820;10.534;2023-09-12T14:04:42;31.40;34.80
21734;DHT22;11029;47.820;10.534;2023-09-12T14:07:10;31.30;33.90
21734;DHT22;11029;47.820;10.534;2023-09-12T14:09:38;31.40;34.70
21734;DHT22;11029;47.820;10.534;2023-09-12T14:12:05;31.70;34.30
21734;DHT22;11029;47.820;10.534;2023-09-12T14:14:44;31.80;33.70
21734;DHT22;11029;47.820;10.534;2023-09-12T14:17:29;31.70;34.40
21734;DHT22;11029;47.820;10.534;2023-09-12T14:19:57;31.70;34.80
21734;DHT22;11029;47.820;10.534;2023-09-12T14:22:24;31.90;34.90
21734;DHT22;11029;47.820;10.534;2023-09-12T14:24:51;32.10;34.50
21734;DHT22;11029;47.820;10.534;2023-09-12T14:27:18;32.30;34.30
21734;DHT22;11029;47.820;10.534;2023-09-12T14:29:52;32.40;33.40
21734;DHT22;11029;47.820;10.534;2023-09-12T14:32:19;32.30;33.60
21734;DHT22;11029;47.820;10.534;2023-09-12T14:34:46;32.00;34.10
21734;DHT22;11029;47.820;10.534;2023-09-12T14:37:13;31.90;34.50
21734;DHT22;11029;47.820;10.534;2023-09-12T14:39:40;31.70;34.10
21734;DHT22;11029;47.820;10.534;2023-09-12T14:42:06;31.30;34.40
21734;DHT22;11029;47.820;10.534;2023-09-12T14:44:35;30.90;34.60
21734;DHT22;11029;47.820;10.534;2023-09-12T14:47:02;30.70;35.40
21734;DHT22;11029;47.820;10.534;2023-09-12T14:49:29;30.40;36.00
21734;DHT22;11029;47.820;10.534;2023-09-12T14:52:01;30.00;36.70
21734;DHT22;11029;47.820;10.534;2023-09-12T14:54:31;29.70;37.80
21734;DHT22;11029;47.820;10.534;2023-09-12T14:56:58;29.30;38.00
21734;DHT22;11029;47.820;10.534;2023-09-12T14:59:25;29.10;39.40
21734;DHT22;11029;47.820;10.534;2023-09-12T15:01:51;28.90;40.10
21734;DHT22;11029;47.820;10.534;2023-09-12T15:04:18;28.80;41.20
21734;DHT22;11029;47.820;10.534;2023-09-12T15:06:45;28.60;39.70
21734;DHT22;11029;47.820;10.534;2023-09-12T15:09:12;28.40;39.50
21734;DHT22;11029;47.820;10.534;2023-09-12T15:11:39;28.40;39.90
21734;DHT22;11029;47.820;10.534;2023-09-12T15:14:06;28.40;40.20
21734;DHT22;11029;47.820;10.534;2023-09-12T15:16:32;28.20;40.80
21734;DHT22;11029;47.820;10.534;2023-09-12T15:19:01;28.20;42.50
21734;DHT22;11029;47.820;10.534;2023-09-12T15:21:29;28.00;43.20
21734;DHT22;11029;47.820;10.534;2023-09-12T15:23:56;27.90;44.10
21734;DHT22;11029;47.820;10.534;2023-09-12T15:26:23;27.80;45.40
21734;DHT22;11029;47.820;10.534;2023-09-12T15:28:50;27.50;46.20
21734;DHT22;11029;47.820;10.534;2023-09-12T15:31:17;27.30;46.80
21734;DHT22;11029;47.820;10.534;2023-09-12T15:33:44;27.20;46.80